Chetopa, Kansas
Current Conditions -  °F | °C
As of 6:52 PM on Monday 26 Jan 2015 (Local Time) from KCFV Reporting Station
Clear Clear  
Wind Chill: 56°   Ceiling: Unl
Heat Index: 56°   Visibility: 10mi
Dew Point: 36°   Wind: 6mph
Humidity: 47%   Direction: 320°NW
Pressure: 30"   Gusts: NA
Location:  37.04°N, 95.09°W
Report Text: KCFV 270052Z AUTO 32005KT 10SM CLR 13/02 A3000 RMK AO2 SLP164 T01330022
Loading
Personal Weather Stations






























Interactive Weather Map New forecast layout! Learn more

10-Day Weather Forecast

Advertisements
Track Severe Weather on mobile